sensor_id;sensor_type;location;lat;lon;timestamp;temperature;humidity
52869;DHT22;39100;53.480;6.158;2023-05-07T00:00:33;12.60;99.90
52869;DHT22;39100;53.480;6.158;2023-05-07T00:02:59;12.50;99.90
52869;DHT22;39100;53.480;6.158;2023-05-07T00:05:25;12.50;99.90
52869;DHT22;39100;53.480;6.158;2023-05-07T00:07:51;12.40;99.90
52869;DHT22;39100;53.480;6.158;2023-05-07T00:10:18;12.40;99.90
52869;DHT22;39100;53.480;6.158;2023-05-07T00:12:44;12.40;99.90
52869;DHT22;39100;53.480;6.158;2023-05-07T00:15:10;12.30;99.90
52869;DHT22;39100;53.480;6.158;2023-05-07T00:17:36;12.30;99.90
52869;DHT22;39100;53.480;6.158;2023-05-07T00:20:03;12.30;99.90
52869;DHT22;39100;53.480;6.158;2023-05-07T00:22:29;12.30;99.90
52869;DHT22;39100;53.480;6.158;2023-05-07T00:24:55;12.20;99.90
52869;DHT22;39100;53.480;6.158;2023-05-07T00:27:22;12.20;99.90
52869;DHT22;39100;53.480;6.158;2023-05-07T00:29:47;12.20;99.90
52869;DHT22;39100;53.480;6.158;2023-05-07T00:32:13;12.20;99.90
52869;DHT22;39100;53.480;6.158;2023-05-07T00:34:39;12.20;99.90
52869;DHT22;39100;53.480;6.158;2023-05-07T00:37:05;12.20;99.90
52869;DHT22;39100;53.480;6.158;2023-05-07T00:39:33;12.10;99.90
52869;DHT22;39100;53.480;6.158;2023-05-07T00:41:58;12.10;99.90
52869;DHT22;39100;53.480;6.158;2023-05-07T00:44:24;12.10;99.90
52869;DHT22;39100;53.480;6.158;2023-05-07T00:46:50;12.10;99.90
52869;DHT22;39100;53.480;6.158;2023-05-07T00:49:16;12.00;99.90
52869;DHT22;39100;53.480;6.158;2023-05-07T00:51:43;12.00;99.90
52869;DHT22;39100;53.480;6.158;2023-05-07T00:54:09;12.00;99.90
52869;DHT22;39100;53.480;6.158;2023-05-07T00:56:34;12.00;99.90
52869;DHT22;39100;53.480;6.158;2023-05-07T00:59:04;12.00;99.90
52869;DHT22;39100;53.480;6.158;2023-05-07T01:01:29;12.00;99.90
52869;DHT22;39100;53.480;6.158;2023-05-07T01:03:56;11.90;99.90
52869;DHT22;39100;53.480;6.158;2023-05-07T01:06:23;13.00;99.90
52869;DHT22;39100;53.480;6.158;2023-05-07T01:08:51;11.90;99.90
52869;DHT22;39100;53.480;6.158;2023-05-07T01:11:18;11.90;99.90
52869;DHT22;39100;53.480;6.158;2023-05-07T01:13:46;11.90;99.90
52869;DHT22;39100;53.480;6.158;2023-05-07T01:16:12;11.90;99.90
52869;DHT22;39100;53.480;6.158;2023-05-07T01:18:38;11.80;99.90
52869;DHT22;39100;53.480;6.158;2023-05-07T01:21:05;11.80;99.90
52869;DHT22;39100;53.480;6.158;2023-05-07T01:23:30;11.80;99.90
52869;DHT22;39100;53.480;6.158;2023-05-07T01:25:56;11.80;99.90
52869;DHT22;39100;53.480;6.158;2023-05-07T01:28:22;11.80;99.90
52869;DHT22;39100;53.480;6.158;2023-05-07T01:30:52;11.80;99.90
52869;DHT22;39100;53.480;6.158;2023-05-07T01:33:20;11.80;99.90
52869;DHT22;39100;53.480;6.158;2023-05-07T01:35:52;11.70;99.90
52869;DHT22;39100;53.480;6.158;2023-05-07T01:38:19;12.30;99.90
52869;DHT22;39100;53.480;6.158;2023-05-07T01:40:45;12.80;99.90
52869;DHT22;39100;53.480;6.158;2023-05-07T01:43:12;11.70;99.90
52869;DHT22;39100;53.480;6.158;2023-05-07T01:45:38;11.70;99.90
52869;DHT22;39100;53.480;6.158;2023-05-07T01:48:04;11.70;99.90
52869;DHT22;39100;53.480;6.158;2023-05-07T01:50:30;11.60;99.90
52869;DHT22;39100;53.480;6.158;2023-05-07T01:52:57;11.60;99.90
52869;DHT22;39100;53.480;6.158;2023-05-07T01:55:22;11.60;99.90
52869;DHT22;39100;53.480;6.158;2023-05-07T01:57:49;11.60;99.90
52869;DHT22;39100;53.480;6.158;2023-05-07T02:00:14;11.60;99.90
52869;DHT22;39100;53.480;6.158;2023-05-07T02:02:40;11.60;99.90
52869;DHT22;39100;53.480;6.158;2023-05-07T02:05:06;11.50;99.90
52869;DHT22;39100;53.480;6.158;2023-05-07T02:07:31;11.60;99.90
52869;DHT22;39100;53.480;6.158;2023-05-07T02:09:57;11.60;99.90
52869;DHT22;39100;53.480;6.158;2023-05-07T02:12:23;11.80;99.90
52869;DHT22;39100;53.480;6.158;2023-05-07T02:14:49;11.50;99.90
52869;DHT22;39100;53.480;6.158;2023-05-07T02:17:14;11.50;99.90
52869;DHT22;39100;53.480;6.158;2023-05-07T02:19:40;11.50;99.90
52869;DHT22;39100;53.480;6.158;2023-05-07T02:22:06;11.50;99.90
52869;DHT22;39100;53.480;6.158;2023-05-07T02:24:32;11.50;99.90
52869;DHT22;39100;53.480;6.158;2023-05-07T02:26:57;11.50;99.90
52869;DHT22;39100;53.480;6.158;2023-05-07T02:29:23;11.50;99.90
52869;DHT22;39100;53.480;6.158;2023-05-07T02:31:48;11.40;99.90
52869;DHT22;39100;53.480;6.158;2023-05-07T02:34:18;11.40;99.90
52869;DHT22;39100;53.480;6.158;2023-05-07T02:36:44;11.40;99.90
52869;DHT22;39100;53.480;6.158;2023-05-07T02:39:12;11.40;99.90
52869;DHT22;39100;53.480;6.158;2023-05-07T02:41:37;11.40;99.90
52869;DHT22;39100;53.480;6.158;2023-05-07T02:44:03;11.40;99.90
52869;DHT22;39100;53.480;6.158;2023-05-07T02:46:29;11.40;99.90
52869;DHT22;39100;53.480;6.158;2023-05-07T02:48:55;11.40;99.90
52869;DHT22;39100;53.480;6.158;2023-05-07T02:51:22;11.40;99.90
52869;DHT22;39100;53.480;6.158;2023-05-07T02:53:47;11.40;99.90
52869;DHT22;39100;53.480;6.158;2023-05-07T02:56:13;11.30;99.90
52869;DHT22;39100;53.480;6.158;2023-05-07T02:58:39;11.40;99.90
52869;DHT22;39100;53.480;6.158;2023-05-07T03:01:05;11.40;99.90
52869;DHT22;39100;53.480;6.158;2023-05-07T03:03:31;11.40;99.90
52869;DHT22;39100;53.480;6.158;2023-05-07T03:05:57;11.30;99.90
52869;DHT22;39100;53.480;6.158;2023-05-07T03:08:24;11.30;99.90
52869;DHT22;39100;53.480;6.158;2023-05-07T03:10:49;11.30;99.90
52869;DHT22;39100;53.480;6.158;2023-05-07T03:13:15;11.30;99.90
52869;DHT22;39100;53.480;6.158;2023-05-07T03:15:41;11.30;99.90
52869;DHT22;39100;53.480;6.158;2023-05-07T03:18:06;11.30;99.90
52869;DHT22;39100;53.480;6.158;2023-05-07T03:20:32;11.30;99.90
52869;DHT22;39100;53.480;6.158;2023-05-07T03:22:57;11.40;99.90
52869;DHT22;39100;53.480;6.158;2023-05-07T03:25:23;11.30;99.90
52869;DHT22;39100;53.480;6.158;2023-05-07T03:27:49;11.30;99.90
52869;DHT22;39100;53.480;6.158;2023-05-07T03:30:14;11.20;99.90
52869;DHT22;39100;53.480;6.158;2023-05-07T03:32:40;11.30;99.90
52869;DHT22;39100;53.480;6.158;2023-05-07T03:35:06;11.20;99.90
52869;DHT22;39100;53.480;6.158;2023-05-07T03:37:31;11.20;99.90
52869;DHT22;39100;53.480;6.158;2023-05-07T03:39:57;11.20;99.90
52869;DHT22;39100;53.480;6.158;2023-05-07T03:42:23;11.20;99.90
52869;DHT22;39100;53.480;6.158;2023-05-07T03:44:49;11.20;99.90
52869;DHT22;39100;53.480;6.158;2023-05-07T03:47:14;11.20;99.90
52869;DHT22;39100;53.480;6.158;2023-05-07T03:49:40;11.20;99.90
52869;DHT22;39100;53.480;6.158;2023-05-07T03:52:05;11.10;99.90
52869;DHT22;39100;53.480;6.158;2023-05-07T03:54:31;11.20;99.90
52869;DHT22;39100;53.480;6.158;2023-05-07T03:56:57;11.10;99.90
52869;DHT22;39100;53.480;6.158;2023-05-07T03:59:22;11.20;99.90
52869;DHT22;39100;53.480;6.158;2023-05-07T04:01:48;11.10;99.90
52869;DHT22;39100;53.480;6.158;2023-05-07T04:04:14;11.10;99.90
52869;DHT22;39100;53.480;6.158;2023-05-07T04:06:40;11.10;99.90
52869;DHT22;39100;53.480;6.158;2023-05-07T04:09:06;11.10;99.90
52869;DHT22;39100;53.480;6.158;2023-05-07T04:11:32;11.20;99.90
52869;DHT22;39100;53.480;6.158;2023-05-07T04:13:57;11.10;99.90
52869;DHT22;39100;53.480;6.158;2023-05-07T04:16:23;11.10;99.90
52869;DHT22;39100;53.480;6.158;2023-05-07T04:18:48;11.10;99.90
52869;DHT22;39100;53.480;6.158;2023-05-07T04:21:15;11.10;99.90
52869;DHT22;39100;53.480;6.158;2023-05-07T04:23:41;11.10;99.90
52869;DHT22;39100;53.480;6.158;2023-05-07T04:26:06;11.10;99.90
52869;DHT22;39100;53.480;6.158;2023-05-07T04:28:32;11.10;99.90
52869;DHT22;39100;53.480;6.158;2023-05-07T04:30:58;11.10;99.90
52869;DHT22;39100;53.480;6.158;2023-05-07T04:33:23;11.10;99.90
52869;DHT22;39100;53.480;6.158;2023-05-07T04:35:49;11.10;99.90
52869;DHT22;39100;53.480;6.158;2023-05-07T04:38:15;11.10;99.90
52869;DHT22;39100;53.480;6.158;2023-05-07T04:40:40;11.10;99.90
52869;DHT22;39100;53.480;6.158;2023-05-07T04:43:06;11.10;99.90
52869;DHT22;39100;53.480;6.158;2023-05-07T04:45:34;11.10;99.90
52869;DHT22;39100;53.480;6.158;2023-05-07T04:48:00;11.10;99.90
52869;DHT22;39100;53.480;6.158;2023-05-07T04:50:26;11.00;99.90
52869;DHT22;39100;53.480;6.158;2023-05-07T04:52:52;11.40;99.90
52869;DHT22;39100;53.480;6.158;2023-05-07T04:55:17;11.10;99.90
52869;DHT22;39100;53.480;6.158;2023-05-07T04:57:43;11.10;99.90
52869;DHT22;39100;53.480;6.158;2023-05-07T05:00:09;11.10;99.90
52869;DHT22;39100;53.480;6.158;2023-05-07T05:02:35;11.10;99.90
52869;DHT22;39100;53.480;6.158;2023-05-07T05:05:01;11.10;99.90
52869;DHT22;39100;53.480;6.158;2023-05-07T05:07:27;11.00;99.90
52869;DHT22;39100;53.480;6.158;2023-05-07T05:09:54;11.00;99.90
52869;DHT22;39100;53.480;6.158;2023-05-07T05:12:20;10.90;99.90
52869;DHT22;39100;53.480;6.158;2023-05-07T05:14:45;10.90;99.90
52869;DHT22;39100;53.480;6.158;2023-05-07T05:17:11;10.80;99.90
52869;DHT22;39100;53.480;6.158;2023-05-07T05:19:36;10.80;99.90
52869;DHT22;39100;53.480;6.158;2023-05-07T05:22:02;10.80;99.90
52869;DHT22;39100;53.480;6.158;2023-05-07T05:24:29;10.80;99.90
52869;DHT22;39100;53.480;6.158;2023-05-07T05:26:55;10.80;99.90
52869;DHT22;39100;53.480;6.158;2023-05-07T05:29:21;10.70;99.90
52869;DHT22;39100;53.480;6.158;2023-05-07T05:31:46;10.90;99.90
52869;DHT22;39100;53.480;6.158;2023-05-07T05:34:12;10.70;99.90
52869;DHT22;39100;53.480;6.158;2023-05-07T05:36:38;10.70;99.90
52869;DHT22;39100;53.480;6.158;2023-05-07T05:39:04;10.70;99.90
52869;DHT22;39100;53.480;6.158;2023-05-07T05:41:30;10.80;99.90
52869;DHT22;39100;53.480;6.158;2023-05-07T05:43:55;10.70;99.90
52869;DHT22;39100;53.480;6.158;2023-05-07T05:46:21;10.80;99.90
52869;DHT22;39100;53.480;6.158;2023-05-07T05:48:47;10.80;99.90
52869;DHT22;39100;53.480;6.158;2023-05-07T05:51:12;10.80;99.90
52869;DHT22;39100;53.480;6.158;2023-05-07T05:53:38;10.80;99.90
52869;DHT22;39100;53.480;6.158;2023-05-07T05:56:04;10.80;99.90
52869;DHT22;39100;53.480;6.158;2023-05-07T05:58:30;10.80;99.90
52869;DHT22;39100;53.480;6.158;2023-05-07T06:00:55;10.70;99.90
52869;DHT22;39100;53.480;6.158;2023-05-07T06:03:21;10.80;99.90
52869;DHT22;39100;53.480;6.158;2023-05-07T06:05:47;10.70;99.90
52869;DHT22;39100;53.480;6.158;2023-05-07T06:08:13;10.80;99.90
52869;DHT22;39100;53.480;6.158;2023-05-07T06:10:39;10.70;99.90
52869;DHT22;39100;53.480;6.158;2023-05-07T06:13:04;10.80;99.90
52869;DHT22;39100;53.480;6.158;2023-05-07T06:15:30;10.80;99.90
52869;DHT22;39100;53.480;6.158;2023-05-07T06:17:56;10.80;99.90
52869;DHT22;39100;53.480;6.158;2023-05-07T06:20:23;10.70;99.90
52869;DHT22;39100;53.480;6.158;2023-05-07T06:22:48;10.80;99.90
52869;DHT22;39100;53.480;6.158;2023-05-07T06:25:14;10.80;99.90
52869;DHT22;39100;53.480;6.158;2023-05-07T06:27:40;10.70;99.90
52869;DHT22;39100;53.480;6.158;2023-05-07T06:30:06;10.70;99.90
52869;DHT22;39100;53.480;6.158;2023-05-07T06:32:32;10.80;99.90
52869;DHT22;39100;53.480;6.158;2023-05-07T06:34:58;10.70;99.90
52869;DHT22;39100;53.480;6.158;2023-05-07T06:37:23;10.70;99.90
52869;DHT22;39100;53.480;6.158;2023-05-07T06:39:49;10.70;99.90
52869;DHT22;39100;53.480;6.158;2023-05-07T06:42:15;10.70;99.90
52869;DHT22;39100;53.480;6.158;2023-05-07T06:44:40;10.70;99.90
52869;DHT22;39100;53.480;6.158;2023-05-07T06:47:06;10.70;99.90
52869;DHT22;39100;53.480;6.158;2023-05-07T06:49:32;11.40;99.90
52869;DHT22;39100;53.480;6.158;2023-05-07T06:51:57;10.70;99.90
52869;DHT22;39100;53.480;6.158;2023-05-07T06:54:23;10.80;99.90
52869;DHT22;39100;53.480;6.158;2023-05-07T06:56:49;10.80;99.90
52869;DHT22;39100;53.480;6.158;2023-05-07T06:59:15;10.80;99.90
52869;DHT22;39100;53.480;6.158;2023-05-07T07:01:41;10.80;99.90
52869;DHT22;39100;53.480;6.158;2023-05-07T07:04:06;10.80;99.90
52869;DHT22;39100;53.480;6.158;2023-05-07T07:06:32;10.80;99.90
52869;DHT22;39100;53.480;6.158;2023-05-07T07:08:58;10.90;99.90
52869;DHT22;39100;53.480;6.158;2023-05-07T07:11:24;10.80;99.90
52869;DHT22;39100;53.480;6.158;2023-05-07T07:13:49;10.80;99.90
52869;DHT22;39100;53.480;6.158;2023-05-07T07:16:16;10.80;99.90
52869;DHT22;39100;53.480;6.158;2023-05-07T07:18:41;10.80;99.90
52869;DHT22;39100;53.480;6.158;2023-05-07T07:21:07;10.80;99.90
52869;DHT22;39100;53.480;6.158;2023-05-07T07:23:33;11.00;99.90
52869;DHT22;39100;53.480;6.158;2023-05-07T07:25:58;10.80;99.90
52869;DHT22;39100;53.480;6.158;2023-05-07T07:28:24;10.80;99.90
52869;DHT22;39100;53.480;6.158;2023-05-07T07:30:49;10.80;99.90
52869;DHT22;39100;53.480;6.158;2023-05-07T07:33:15;10.80;99.90
52869;DHT22;39100;53.480;6.158;2023-05-07T07:35:42;10.80;99.90
52869;DHT22;39100;53.480;6.158;2023-05-07T07:38:07;10.80;99.90
52869;DHT22;39100;53.480;6.158;2023-05-07T07:40:34;10.80;99.90
52869;DHT22;39100;53.480;6.158;2023-05-07T07:43:00;10.80;99.90
52869;DHT22;39100;53.480;6.158;2023-05-07T07:45:26;10.80;99.90
52869;DHT22;39100;53.480;6.158;2023-05-07T07:47:52;10.80;99.90
52869;DHT22;39100;53.480;6.158;2023-05-07T07:50:18;10.70;99.90
52869;DHT22;39100;53.480;6.158;2023-05-07T07:52:44;10.70;99.90
52869;DHT22;39100;53.480;6.158;2023-05-07T07:55:09;10.70;99.90
52869;DHT22;39100;53.480;6.158;2023-05-07T07:57:35;10.70;99.90
52869;DHT22;39100;53.480;6.158;2023-05-07T08:00:01;10.70;99.90
52869;DHT22;39100;53.480;6.158;2023-05-07T08:02:26;10.80;99.90
52869;DHT22;39100;53.480;6.158;2023-05-07T08:04:52;10.80;99.90
52869;DHT22;39100;53.480;6.158;2023-05-07T08:07:17;10.70;99.90
52869;DHT22;39100;53.480;6.158;2023-05-07T08:09:46;10.80;99.90
52869;DHT22;39100;53.480;6.158;2023-05-07T08:12:12;10.80;99.90
52869;DHT22;39100;53.480;6.158;2023-05-07T08:14:38;10.80;99.90
52869;DHT22;39100;53.480;6.158;2023-05-07T08:17:03;10.80;99.90
52869;DHT22;39100;53.480;6.158;2023-05-07T08:19:29;10.90;99.90
52869;DHT22;39100;53.480;6.158;2023-05-07T08:21:54;10.90;99.90
52869;DHT22;39100;53.480;6.158;2023-05-07T08:24:21;10.90;99.90
52869;DHT22;39100;53.480;6.158;2023-05-07T08:26:46;10.90;99.90
52869;DHT22;39100;53.480;6.158;2023-05-07T08:29:12;10.90;99.90
52869;DHT22;39100;53.480;6.158;2023-05-07T08:31:37;11.00;99.90
52869;DHT22;39100;53.480;6.158;2023-05-07T08:34:06;11.00;99.90
52869;DHT22;39100;53.480;6.158;2023-05-07T08:36:32;11.00;99.90
52869;DHT22;39100;53.480;6.158;2023-05-07T08:38:57;11.00;99.90
52869;DHT22;39100;53.480;6.158;2023-05-07T08:41:23;11.10;99.90
52869;DHT22;39100;53.480;6.158;2023-05-07T08:43:50;11.20;99.90
52869;DHT22;39100;53.480;6.158;2023-05-07T08:46:20;11.20;99.90
52869;DHT22;39100;53.480;6.158;2023-05-07T08:48:50;11.30;99.90
52869;DHT22;39100;53.480;6.158;2023-05-07T08:51:20;11.40;99.90
52869;DHT22;39100;53.480;6.158;2023-05-07T08:53:47;11.40;99.90
52869;DHT22;39100;53.480;6.158;2023-05-07T08:56:17;11.40;99.90
52869;DHT22;39100;53.480;6.158;2023-05-07T08:58:43;11.50;99.90
52869;DHT22;39100;53.480;6.158;2023-05-07T09:01:13;11.50;99.90
52869;DHT22;39100;53.480;6.158;2023-05-07T09:03:41;11.50;99.90
52869;DHT22;39100;53.480;6.158;2023-05-07T09:06:07;11.60;99.90
52869;DHT22;39100;53.480;6.158;2023-05-07T09:08:33;11.60;99.90
52869;DHT22;39100;53.480;6.158;2023-05-07T09:10:59;11.60;99.90
52869;DHT22;39100;53.480;6.158;2023-05-07T09:13:25;11.60;99.90
52869;DHT22;39100;53.480;6.158;2023-05-07T09:15:52;11.60;99.90
52869;DHT22;39100;53.480;6.158;2023-05-07T09:18:17;11.70;99.90
52869;DHT22;39100;53.480;6.158;2023-05-07T09:20:43;11.70;99.90
52869;DHT22;39100;53.480;6.158;2023-05-07T09:23:09;11.70;99.90
52869;DHT22;39100;53.480;6.158;2023-05-07T09:25:36;11.70;99.90
52869;DHT22;39100;53.480;6.158;2023-05-07T09:28:02;11.70;99.90
52869;DHT22;39100;53.480;6.158;2023-05-07T09:30:29;11.70;99.90
52869;DHT22;39100;53.480;6.158;2023-05-07T09:33:00;11.80;99.90
52869;DHT22;39100;53.480;6.158;2023-05-07T09:35:26;11.80;99.90
52869;DHT22;39100;53.480;6.158;2023-05-07T09:38:00;11.90;99.90
52869;DHT22;39100;53.480;6.158;2023-05-07T09:40:28;12.00;99.90
52869;DHT22;39100;53.480;6.158;2023-05-07T09:42:55;12.20;99.90
52869;DHT22;39100;53.480;6.158;2023-05-07T09:45:27;12.30;99.90
52869;DHT22;39100;53.480;6.158;2023-05-07T09:47:55;12.30;99.90
52869;DHT22;39100;53.480;6.158;2023-05-07T09:50:36;12.50;99.90
52869;DHT22;39100;53.480;6.158;2023-05-07T09:53:04;12.60;99.90
52869;DHT22;39100;53.480;6.158;2023-05-07T09:55:30;12.70;99.90
52869;DHT22;39100;53.480;6.158;2023-05-07T09:57:57;12.80;99.90
52869;DHT22;39100;53.480;6.158;2023-05-07T10:00:24;12.90;99.90
52869;DHT22;39100;53.480;6.158;2023-05-07T10:02:56;13.00;99.90
52869;DHT22;39100;53.480;6.158;2023-05-07T10:05:22;13.00;99.90
52869;DHT22;39100;53.480;6.158;2023-05-07T10:07:49;13.00;99.90
52869;DHT22;39100;53.480;6.158;2023-05-07T10:10:16;13.00;99.90
52869;DHT22;39100;53.480;6.158;2023-05-07T10:12:42;13.00;99.90
52869;DHT22;39100;53.480;6.158;2023-05-07T10:15:11;13.00;99.90
52869;DHT22;39100;53.480;6.158;2023-05-07T10:17:38;13.00;99.90
52869;DHT22;39100;53.480;6.158;2023-05-07T10:20:05;13.00;99.90
52869;DHT22;39100;53.480;6.158;2023-05-07T10:22:47;13.00;99.90
52869;DHT22;39100;53.480;6.158;2023-05-07T10:25:28;13.00;99.90
52869;DHT22;39100;53.480;6.158;2023-05-07T10:27:55;13.10;99.90
52869;DHT22;39100;53.480;6.158;2023-05-07T10:32:59;13.20;99.90
52869;DHT22;39100;53.480;6.158;2023-05-07T10:35:32;13.40;99.90
52869;DHT22;39100;53.480;6.158;2023-05-07T10:38:02;13.60;99.90
52869;DHT22;39100;53.480;6.158;2023-05-07T10:40:27;13.70;99.90
52869;DHT22;39100;53.480;6.158;2023-05-07T10:43:01;13.90;99.90
52869;DHT22;39100;53.480;6.158;2023-05-07T10:45:28;14.00;99.90
52869;DHT22;39100;53.480;6.158;2023-05-07T10:48:16;14.10;99.90
52869;DHT22;39100;53.480;6.158;2023-05-07T10:50:45;14.20;99.90
52869;DHT22;39100;53.480;6.158;2023-05-07T10:55:42;14.40;99.90
52869;DHT22;39100;53.480;6.158;2023-05-07T10:58:27;14.50;99.90
52869;DHT22;39100;53.480;6.158;2023-05-07T11:00:58;14.60;99.90
52869;DHT22;39100;53.480;6.158;2023-05-07T11:03:24;14.60;99.90
52869;DHT22;39100;53.480;6.158;2023-05-07T11:06:13;14.70;99.90
52869;DHT22;39100;53.480;6.158;2023-05-07T11:08:57;14.80;99.90
52869;DHT22;39100;53.480;6.158;2023-05-07T11:11:43;14.70;99.90
52869;DHT22;39100;53.480;6.158;2023-05-07T11:14:09;14.70;99.90
52869;DHT22;39100;53.480;6.158;2023-05-07T11:16:35;14.80;99.90
52869;DHT22;39100;53.480;6.158;2023-05-07T11:19:03;14.90;99.90
52869;DHT22;39100;53.480;6.158;2023-05-07T11:21:36;15.00;99.90
52869;DHT22;39100;53.480;6.158;2023-05-07T11:24:04;15.10;99.90
52869;DHT22;39100;53.480;6.158;2023-05-07T11:26:41;15.30;99.90
52869;DHT22;39100;53.480;6.158;2023-05-07T11:29:17;15.60;99.90
52869;DHT22;39100;53.480;6.158;2023-05-07T11:31:43;16.00;99.90
52869;DHT22;39100;53.480;6.158;2023-05-07T11:34:09;16.30;99.90
52869;DHT22;39100;53.480;6.158;2023-05-07T11:36:35;16.50;99.90
52869;DHT22;39100;53.480;6.158;2023-05-07T11:39:26;17.00;99.90
52869;DHT22;39100;53.480;6.158;2023-05-07T11:41:52;17.00;99.90
52869;DHT22;39100;53.480;6.158;2023-05-07T11:44:17;16.90;99.90
52869;DHT22;39100;53.480;6.158;2023-05-07T11:46:44;16.90;99.90
52869;DHT22;39100;53.480;6.158;2023-05-07T11:49:10;16.50;99.90
52869;DHT22;39100;53.480;6.158;2023-05-07T11:51:36;16.20;99.90
52869;DHT22;39100;53.480;6.158;2023-05-07T11:54:03;16.20;99.90
52869;DHT22;39100;53.480;6.158;2023-05-07T11:56:31;16.30;99.90
52869;DHT22;39100;53.480;6.158;2023-05-07T11:58:59;16.30;99.90
52869;DHT22;39100;53.480;6.158;2023-05-07T12:01:24;16.20;99.90
52869;DHT22;39100;53.480;6.158;2023-05-07T12:03:50;16.30;99.90
52869;DHT22;39100;53.480;6.158;2023-05-07T12:06:16;16.80;99.90
52869;DHT22;39100;53.480;6.158;2023-05-07T12:08:43;17.20;99.90
52869;DHT22;39100;53.480;6.158;2023-05-07T12:11:31;17.80;99.90
52869;DHT22;39100;53.480;6.158;2023-05-07T12:13:55;18.20;99.90
52869;DHT22;39100;53.480;6.158;2023-05-07T12:16:21;19.00;99.90
52869;DHT22;39100;53.480;6.158;2023-05-07T12:18:47;19.10;99.90
52869;DHT22;39100;53.480;6.158;2023-05-07T12:21:13;19.40;99.90
52869;DHT22;39100;53.480;6.158;2023-05-07T12:23:40;19.50;99.90
52869;DHT22;39100;53.480;6.158;2023-05-07T12:26:06;19.70;99.90
52869;DHT22;39100;53.480;6.158;2023-05-07T12:28:36;19.80;99.90
52869;DHT22;39100;53.480;6.158;2023-05-07T12:31:03;20.30;99.90
52869;DHT22;39100;53.480;6.158;2023-05-07T12:33:29;20.20;99.90
52869;DHT22;39100;53.480;6.158;2023-05-07T12:35:56;20.50;99.90
52869;DHT22;39100;53.480;6.158;2023-05-07T12:38:22;20.50;99.90
52869;DHT22;39100;53.480;6.158;2023-05-07T12:40:50;20.70;99.90
52869;DHT22;39100;53.480;6.158;2023-05-07T12:43:26;20.90;99.90
52869;DHT22;39100;53.480;6.158;2023-05-07T12:45:55;20.60;99.90
52869;DHT22;39100;53.480;6.158;2023-05-07T12:48:21;20.60;99.90
52869;DHT22;39100;53.480;6.158;2023-05-07T12:50:54;21.10;99.90
52869;DHT22;39100;53.480;6.158;2023-05-07T12:53:21;20.50;99.90
52869;DHT22;39100;53.480;6.158;2023-05-07T12:55:51;21.10;99.90
52869;DHT22;39100;53.480;6.158;2023-05-07T12:58:27;20.30;99.90
52869;DHT22;39100;53.480;6.158;2023-05-07T13:00:54;20.40;99.90
52869;DHT22;39100;53.480;6.158;2023-05-07T13:03:28;20.20;99.90
52869;DHT22;39100;53.480;6.158;2023-05-07T13:05:57;20.10;99.90
52869;DHT22;39100;53.480;6.158;2023-05-07T13:08:25;19.90;99.90
52869;DHT22;39100;53.480;6.158;2023-05-07T13:10:51;19.80;99.90
52869;DHT22;39100;53.480;6.158;2023-05-07T13:13:16;19.70;99.90
52869;DHT22;39100;53.480;6.158;2023-05-07T13:15:42;19.70;99.90
52869;DHT22;39100;53.480;6.158;2023-05-07T13:18:07;19.70;99.90
52869;DHT22;39100;53.480;6.158;2023-05-07T13:20:33;19.70;99.90
52869;DHT22;39100;53.480;6.158;2023-05-07T13:22:58;19.90;99.90
52869;DHT22;39100;53.480;6.158;2023-05-07T13:25:27;19.60;99.90
52869;DHT22;39100;53.480;6.158;2023-05-07T13:27:52;19.50;99.90
52869;DHT22;39100;53.480;6.158;2023-05-07T13:30:18;19.50;99.90
52869;DHT22;39100;53.480;6.158;2023-05-07T13:32:43;19.40;99.90
52869;DHT22;39100;53.480;6.158;2023-05-07T13:35:10;19.50;99.90
52869;DHT22;39100;53.480;6.158;2023-05-07T13:37:36;19.50;99.90
52869;DHT22;39100;53.480;6.158;2023-05-07T13:40:02;19.60;99.90
52869;DHT22;39100;53.480;6.158;2023-05-07T13:42:27;19.50;99.90
52869;DHT22;39100;53.480;6.158;2023-05-07T13:44:53;19.60;99.90
52869;DHT22;39100;53.480;6.158;2023-05-07T13:47:18;19.60;99.90
52869;DHT22;39100;53.480;6.158;2023-05-07T13:49:44;19.70;99.90
52869;DHT22;39100;53.480;6.158;2023-05-07T13:52:10;19.70;99.90
52869;DHT22;39100;53.480;6.158;2023-05-07T13:54:36;19.80;99.90
52869;DHT22;39100;53.480;6.158;2023-05-07T13:57:02;19.70;99.90
52869;DHT22;39100;53.480;6.158;2023-05-07T13:59:27;19.60;99.90
52869;DHT22;39100;53.480;6.158;2023-05-07T14:01:53;19.50;99.90
52869;DHT22;39100;53.480;6.158;2023-05-07T14:04:20;19.70;99.90
52869;DHT22;39100;53.480;6.158;2023-05-07T14:06:45;19.60;99.90
52869;DHT22;39100;53.480;6.158;2023-05-07T14:09:11;19.60;99.90
52869;DHT22;39100;53.480;6.158;2023-05-07T14:11:38;19.60;99.90
52869;DHT22;39100;53.480;6.158;2023-05-07T14:14:05;19.60;99.90
52869;DHT22;39100;53.480;6.158;2023-05-07T14:16:30;19.70;99.90
52869;DHT22;39100;53.480;6.158;2023-05-07T14:18:56;19.70;99.90
52869;DHT22;39100;53.480;6.158;2023-05-07T14:21:21;19.70;99.90
52869;DHT22;39100;53.480;6.158;2023-05-07T14:23:47;19.70;99.90
52869;DHT22;39100;53.480;6.158;2023-05-07T14:26:13;19.70;99.90
52869;DHT22;39100;53.480;6.158;2023-05-07T14:28:39;19.80;99.90
52869;DHT22;39100;53.480;6.158;2023-05-07T14:31:05;19.80;99.90
52869;DHT22;39100;53.480;6.158;2023-05-07T14:33:31;19.80;99.90
52869;DHT22;39100;53.480;6.158;2023-05-07T14:35:57;19.70;99.90
52869;DHT22;39100;53.480;6.158;2023-05-07T14:38:22;19.70;99.90
52869;DHT22;39100;53.480;6.158;2023-05-07T14:40:48;19.70;99.90
52869;DHT22;39100;53.480;6.158;2023-05-07T14:43:14;19.70;99.90
52869;DHT22;39100;53.480;6.158;2023-05-07T14:45:39;19.70;99.90
52869;DHT22;39100;53.480;6.158;2023-05-07T14:48:05;19.50;99.90
52869;DHT22;39100;53.480;6.158;2023-05-07T14:50:31;19.60;99.90
52869;DHT22;39100;53.480;6.158;2023-05-07T14:52:56;19.50;99.90
52869;DHT22;39100;53.480;6.158;2023-05-07T14:55:22;19.50;99.90
52869;DHT22;39100;53.480;6.158;2023-05-07T14:57:47;19.50;99.90
52869;DHT22;39100;53.480;6.158;2023-05-07T15:00:13;19.50;99.90
52869;DHT22;39100;53.480;6.158;2023-05-07T15:02:39;19.40;99.90
52869;DHT22;39100;53.480;6.158;2023-05-07T15:05:05;19.50;99.90
52869;DHT22;39100;53.480;6.158;2023-05-07T15:07:31;19.40;99.90
52869;DHT22;39100;53.480;6.158;2023-05-07T15:09:58;19.40;99.90
52869;DHT22;39100;53.480;6.158;2023-05-07T15:12:23;19.40;99.90
52869;DHT22;39100;53.480;6.158;2023-05-07T15:14:49;19.50;99.90
52869;DHT22;39100;53.480;6.158;2023-05-07T15:17:14;19.40;99.90
52869;DHT22;39100;53.480;6.158;2023-05-07T15:19:40;19.20;99.90
52869;DHT22;39100;53.480;6.158;2023-05-07T15:22:06;19.10;99.90
52869;DHT22;39100;53.480;6.158;2023-05-07T15:24:31;19.00;99.90
52869;DHT22;39100;53.480;6.158;2023-05-07T15:26:57;19.00;99.90
52869;DHT22;39100;53.480;6.158;2023-05-07T15:29:26;19.10;99.90
52869;DHT22;39100;53.480;6.158;2023-05-07T15:31:52;19.00;99.90